Sigas Ingrid — VRCQ6 — position and weather

sailwx.info

Track history (hours):
 
Tides and Currents Weather Stations Pressure Air Temp Water Temp Dewpoint Dewpoint Depression Visibility Wind Speed Wind Dir Waves Ship Positions

Sigas Ingrid

Last reported at 2014-Jul-25 10:33 UTC. Time now 2014-Jul-25 11:20 UTC.
Position N 34°42' E 011°58'.

Length 100 m; draft 4.6 m.

Type: Tanker. MMSI: 477658800.

Date/timePositionNaut miles runAvg speedWind from/ knotsBaromVisibWave heightAir tempDewpointWater temp
2014-Jul-25 10:33N 34°42' E 011°58'1312.2
2014-Jul-25 09:27N 34°47' E 012°13'1111.9
2014-Jul-25 08:33N 34°52' E 012°25'1211.9
2014-Jul-25 07:33N 34°57' E 012°38'1211.7
2014-Jul-25 06:33N 35°02' E 012°51'1211.7
2014-Jul-25 05:33N 35°08' E 013°03'1211.8
2014-Jul-25 04:33N 35°13' E 013°16'1211.8
2014-Jul-25 03:33N 35°18' E 013°29'1111.5
2014-Jul-25 02:33N 35°23' E 013°42'1311.0
2014-Jul-25 01:21N 35°29' E 013°57'1011.1
2014-Jul-25 00:30N 35°34' E 014°07'1111.3
2014-Jul-24 23:32N 35°38' E 014°19'1211.5
2014-Jul-24 22:29N 35°42' E 014°33'1010.9
2014-Jul-24 21:33N 35°50' E 014°41'1212.0
2014-Jul-24 20:33N 36°01' E 014°47'1212.1
2014-Jul-24 19:33N 36°12' E 014°54'1211.8
2014-Jul-24 18:33N 36°23' E 014°59'  
2014-Jul-19 07:33N 36°17' E 014°56'1010.4
2014-Jul-19 06:33N 36°08' E 014°51'1110.6
2014-Jul-19 05:33N 35°58' E 014°46'1110.6
2014-Jul-19 04:33N 35°48' E 014°41'1110.7
2014-Jul-19 03:33N 35°42' E 014°30'1211.7
2014-Jul-19 02:33N 35°37' E 014°17'1211.9
2014-Jul-19 01:33N 35°32' E 014°04'1211.8
2014-Jul-19 00:33N 35°27' E 013°51'1111.5
2014-Jul-18 23:33N 35°22' E 013°38'1211.0
2014-Jul-18 22:29N 35°18' E 013°25'4310.9
2014-Jul-18 18:33N 34°57' E 012°39'2610.7
2014-Jul-18 16:09N 34°46' E 012°11'610.5
2014-Jul-18 15:33N 34°44' E 012°04'1010.3
2014-Jul-18 14:33N 34°39' E 011°52'1010.3
2014-Jul-18 13:32N 34°34' E 011°41'  
Track history (hours):
 
Tides and Currents Weather Stations Pressure Air Temp Water Temp Dewpoint Dewpoint Depression Visibility Wind Speed Wind Dir Waves Ship Positions

Sigas Ingrid

Last reported at 2014-Jul-25 10:33 UTC. Time now 2014-Jul-25 11:20 UTC.
Position N 34°42' E 011°58'.

Length 100 m; draft 4.6 m.

Type: Tanker. MMSI: 477658800.

Date/timePositionNaut miles runAvg speedWind from/ knotsBaromVisibWave heightAir tempDewpointWater temp
2014-Jul-25 10:33N 34°42' E 011°58'1312.2
2014-Jul-25 09:27N 34°47' E 012°13'1111.9
2014-Jul-25 08:33N 34°52' E 012°25'1211.9
2014-Jul-25 07:33N 34°57' E 012°38'1211.7
2014-Jul-25 06:33N 35°02' E 012°51'1211.7
2014-Jul-25 05:33N 35°08' E 013°03'1211.8
2014-Jul-25 04:33N 35°13' E 013°16'1211.8
2014-Jul-25 03:33N 35°18' E 013°29'1111.5
2014-Jul-25 02:33N 35°23' E 013°42'1311.0
2014-Jul-25 01:21N 35°29' E 013°57'1011.1
2014-Jul-25 00:30N 35°34' E 014°07'1111.3
2014-Jul-24 23:32N 35°38' E 014°19'1211.5
2014-Jul-24 22:29N 35°42' E 014°33'1010.9
2014-Jul-24 21:33N 35°50' E 014°41'1212.0
2014-Jul-24 20:33N 36°01' E 014°47'1212.1
2014-Jul-24 19:33N 36°12' E 014°54'1211.8
2014-Jul-24 18:33N 36°23' E 014°59'  
2014-Jul-19 07:33N 36°17' E 014°56'1010.4
2014-Jul-19 06:33N 36°08' E 014°51'1110.6
2014-Jul-19 05:33N 35°58' E 014°46'1110.6
2014-Jul-19 04:33N 35°48' E 014°41'1110.7
2014-Jul-19 03:33N 35°42' E 014°30'1211.7
2014-Jul-19 02:33N 35°37' E 014°17'1211.9
2014-Jul-19 01:33N 35°32' E 014°04'1211.8
2014-Jul-19 00:33N 35°27' E 013°51'1111.5
2014-Jul-18 23:33N 35°22' E 013°38'1211.0
2014-Jul-18 22:29N 35°18' E 013°25'4310.9
2014-Jul-18 18:33N 34°57' E 012°39'2610.7
2014-Jul-18 16:09N 34°46' E 012°11'610.5
2014-Jul-18 15:33N 34°44' E 012°04'1010.3
2014-Jul-18 14:33N 34°39' E 011°52'1010.3
2014-Jul-18 13:32N 34°34' E 011°41'  

Dump ship's entire track history